CBE Airport (Greater Cumberland Rgnl) Information

FAA: CBE - ICAO: KCBE

CBE Airport Location

State Maryland
County Mineral
City Cumberland
CBE Airport is 2 miles south of Cumberland, MD.
Latitude 39-36-55.1010N
Longitude 078-45-41.3220W
Elevation 775ft

KCBE Airport METARs

METAR KCBE 080655Z AUTO 00000KT 10SM SCT110 M02/M07 A3011 RMK AO2 T10241065
Altimeter 30.11"
Temperature -2.4°C (27.7°F)
Wind 0° at 0KT
Clouds scattered at 11,000ft
Visibility 10.0mi
Time observed: 2021-12-08T06:55:00Z

CBE Airport Details

Status Operational
Activation March 1944
Ownership Public
Usage Public
Chart WASHINGTON
ATC on-site No
Beacon schedule sunset-sunrise
Beacon color clear green

CBE Airport Contacts

Owner POTOMAC HIGHLAND ARPT AUTH
Owner address 165 TERMINAL LOOP, WILEY FORD, WV 26767
Owner phone 304-738-0002
Manager KEVIN HESS
Manager address 3538 ALDINO RD, CHURCHVILLE, MD 21028
Manager phone 410-836-2828

CBE Airport (Greater Cumberland Rgnl) Radio Frequencies

CBE (Airport) Radio Frequencies

UNICOM 122.8
Common traffic advisory frequency (CTAF) 122.8